Terminal Aerodrome Forecast
Issued by NWS Brownsville, TX

Current Version | Previous Version | Text Only | Print | Product List | Glossary On
Versions: 1 2 3 4 5 6 7 8 9 10 11 12 13 14 15 16 17 18 19 20 21 22
000
FTUS44 KBRO 301000 AAB
TAFMFE
TAF AMD
KMFE 301041Z 3011/3106 12012KT 5SM -TSRA OVC040CB
      TEMPO 3011/3012 2SM -TSRA BKN015CB
     FM301200 13006KT P6SM VCSH OVC050
      TEMPO 3012/3015 P6SM -TSRA OVC040CB
     FM301500 14010KT P6SM VCSH OVC050
     FM302100 14010KT P6SM VCSH OVC035
      TEMPO 3021/3024 P6SM -TSRA BKN025CB
     FM310000 13010KT P6SM SCT020 OVC050
     FM310300 14005KT P6SM SCT020 OVC100=

USA.gov is the U.S. government's official web portal to all federal, state and local government web resources and services.